createdAt,value
2023-03-27T00:00:19.181Z,3
2023-03-27T00:05:19.210Z,6
2023-03-27T00:10:19.156Z,7
2023-03-27T00:15:19.202Z,4
2023-03-27T00:20:19.203Z,3
2023-03-27T00:25:19.129Z,4
2023-03-27T00:30:19.369Z,4
2023-03-27T00:35:19.138Z,3
2023-03-27T00:40:16.139Z,3
2023-03-27T00:45:16.143Z,3
2023-03-27T00:50:19.205Z,4
2023-03-27T00:55:19.335Z,5
2023-03-27T01:00:19.296Z,5
2023-03-27T01:05:19.279Z,6
2023-03-27T01:10:19.206Z,8
2023-03-27T01:15:19.249Z,5
2023-03-27T01:20:19.277Z,7
2023-03-27T01:25:19.308Z,6
2023-03-27T01:30:19.325Z,8
2023-03-27T01:35:16.123Z,8
2023-03-27T01:40:16.276Z,8
2023-03-27T01:45:19.343Z,9
2023-03-27T01:50:19.333Z,10
2023-03-27T01:55:19.381Z,9
2023-03-27T02:00:19.705Z,8
2023-03-27T02:05:19.594Z,7
2023-03-27T02:10:19.308Z,4
2023-03-27T02:15:23.126Z,2
2023-03-27T02:20:19.369Z,3
2023-03-27T02:25:16.312Z,2
2023-03-27T02:30:16.304Z,1
2023-03-27T02:35:19.442Z,1
2023-03-27T02:40:19.347Z,0
2023-03-27T02:45:19.323Z,0
2023-03-27T02:50:19.435Z,0
2023-03-27T02:55:19.554Z,0
2023-03-27T03:00:19.533Z,0
2023-03-27T03:05:19.476Z,1
2023-03-27T03:10:19.553Z,1
2023-03-27T03:15:19.526Z,1
2023-03-27T03:20:16.420Z,1
2023-03-27T03:25:16.357Z,1
2023-03-27T03:30:19.533Z,1
2023-03-27T03:35:19.581Z,0
2023-03-27T03:40:19.524Z,1
2023-03-27T03:45:19.653Z,1
2023-03-27T03:50:19.563Z,0
2023-03-27T03:55:19.577Z,0
2023-03-27T04:00:15.919Z,0
2023-03-27T04:05:15.829Z,0
2023-03-27T04:10:19.012Z,1
2023-03-27T04:15:18.851Z,0
2023-03-27T04:20:18.912Z,1
2023-03-27T04:25:18.857Z,2
2023-03-27T04:30:16.018Z,2
2023-03-27T04:35:16.001Z,2
2023-03-27T04:40:18.910Z,1
2023-03-27T04:45:18.945Z,1
2023-03-27T04:50:18.962Z,1
2023-03-27T04:55:18.939Z,0
2023-03-27T05:00:19.069Z,0
2023-03-27T05:05:16.029Z,1
2023-03-27T05:10:22.108Z,1
2023-03-27T05:15:19.046Z,2
2023-03-27T05:20:15.867Z,1
2023-03-27T05:25:15.898Z,1
2023-03-27T05:30:19.019Z,1
2023-03-27T05:35:19.111Z,1
2023-03-27T05:40:19.039Z,1
2023-03-27T05:45:19.028Z,1
2023-03-27T05:50:19.001Z,2
2023-03-27T05:55:19.066Z,2
2023-03-27T06:00:18.981Z,1
2023-03-27T06:05:19.078Z,1
2023-03-27T06:10:19.034Z,1
2023-03-27T06:15:16.019Z,0
2023-03-27T06:20:16.010Z,0
2023-03-27T06:25:19.184Z,0
2023-03-27T06:30:19.141Z,0
2023-03-27T06:35:19.094Z,1
2023-03-27T06:40:19.269Z,0
2023-03-27T06:45:19.198Z,0
2023-03-27T06:50:19.165Z,0
2023-03-27T06:55:19.216Z,0
2023-03-27T07:00:19.271Z,0
2023-03-27T07:05:19.133Z,0
2023-03-27T07:10:15.973Z,0
2023-03-27T07:15:16.029Z,0
2023-03-27T07:20:19.104Z,0
2023-03-27T07:25:19.293Z,0
2023-03-27T07:30:19.227Z,0
2023-03-27T07:35:19.250Z,0
2023-03-27T07:40:21.770Z,0
2023-03-27T07:45:19.585Z,0
2023-03-27T07:50:19.247Z,0
2023-03-27T07:55:19.319Z,0
2023-03-27T08:00:19.271Z,0
2023-03-27T08:05:16.182Z,0
2023-03-27T08:10:16.265Z,0
2023-03-27T08:15:19.347Z,0
2023-03-27T08:20:19.330Z,0
2023-03-27T08:25:19.416Z,0
2023-03-27T08:30:19.414Z,0
2023-03-27T08:35:19.425Z,0
2023-03-27T08:40:19.433Z,0
2023-03-27T08:45:19.356Z,0
2023-03-27T08:50:19.570Z,0
2023-03-27T08:55:16.347Z,0
2023-03-27T09:00:16.322Z,0
2023-03-27T09:05:19.467Z,0
2023-03-27T09:10:19.556Z,0
2023-03-27T09:15:19.477Z,0
2023-03-27T09:20:19.518Z,1
2023-03-27T09:25:19.487Z,0
2023-03-27T09:30:19.596Z,0
2023-03-27T09:35:19.648Z,0
2023-03-27T09:40:19.524Z,0
2023-03-27T09:45:19.475Z,0
2023-03-27T09:50:16.495Z,0
2023-03-27T09:55:16.479Z,0
2023-03-27T10:00:19.857Z,0
2023-03-27T10:05:19.516Z,0
2023-03-27T10:10:19.571Z,0
2023-03-27T10:15:19.678Z,0
2023-03-27T10:20:19.623Z,0
2023-03-27T10:25:19.700Z,0
2023-03-27T10:30:19.598Z,0
2023-03-27T10:35:19.558Z,0
2023-03-27T10:40:19.718Z,0
2023-03-27T10:45:16.546Z,0
2023-03-27T10:50:19.656Z,0
2023-03-27T10:55:19.697Z,0
2023-03-27T11:00:19.713Z,0
2023-03-27T11:05:19.778Z,0
2023-03-27T11:10:19.758Z,0
2023-03-27T11:15:19.707Z,1
2023-03-27T11:20:19.753Z,0
2023-03-27T11:25:19.851Z,0
2023-03-27T11:30:19.764Z,0
2023-03-27T11:35:16.653Z,0
2023-03-27T11:40:16.615Z,0
2023-03-27T11:45:19.892Z,0
2023-03-27T11:50:19.825Z,1
2023-03-27T11:55:19.794Z,1
2023-03-27T12:00:19.908Z,0
2023-03-27T12:05:19.845Z,0
2023-03-27T12:10:23.510Z,0
2023-03-27T12:15:20.048Z,0
2023-03-27T12:20:19.922Z,0
2023-03-27T12:25:19.857Z,0
2023-03-27T12:30:16.725Z,0
2023-03-27T12:35:18.141Z,0
2023-03-27T12:40:19.958Z,1
2023-03-27T12:45:20.046Z,2
2023-03-27T12:50:20.037Z,5
2023-03-27T12:55:20.018Z,5
2023-03-27T13:00:20.001Z,5
2023-03-27T13:05:27.452Z,7
2023-03-27T13:10:19.948Z,7
2023-03-27T13:15:19.977Z,7
2023-03-27T13:20:19.939Z,7
2023-03-27T13:25:17.027Z,10
2023-03-27T13:30:20.616Z,10
2023-03-27T13:35:20.180Z,9
2023-03-27T13:40:20.045Z,8
2023-03-27T13:45:20.115Z,12
2023-03-27T13:50:20.068Z,9
2023-03-27T13:55:20.189Z,9
2023-03-27T14:00:20.083Z,9
2023-03-27T14:05:20.086Z,9
2023-03-27T14:10:20.114Z,8
2023-03-27T14:15:16.966Z,9
2023-03-27T14:20:17.046Z,11
2023-03-27T14:25:20.311Z,10
2023-03-27T14:30:20.325Z,9
2023-03-27T14:35:20.220Z,12
2023-03-27T14:40:20.262Z,9
2023-03-27T14:45:20.478Z,8
2023-03-27T14:50:20.192Z,8
2023-03-27T14:55:20.216Z,6
2023-03-27T15:00:20.227Z,7
2023-03-27T15:05:20.381Z,9
2023-03-27T15:10:17.219Z,6
2023-03-27T15:15:20.296Z,7
2023-03-27T15:20:20.240Z,10
2023-03-27T15:25:20.293Z,3
2023-03-27T15:30:20.206Z,4
2023-03-27T15:35:20.388Z,3
2023-03-27T15:40:20.237Z,6
2023-03-27T15:45:20.397Z,6
2023-03-27T15:50:20.259Z,8
2023-03-27T15:55:20.358Z,4
2023-03-27T16:00:17.249Z,4
2023-03-27T16:05:17.190Z,2
2023-03-27T16:10:20.450Z,7
2023-03-27T16:15:20.397Z,6
2023-03-27T16:20:20.354Z,5
2023-03-27T16:25:20.406Z,5
2023-03-27T16:30:20.340Z,9
2023-03-27T16:35:20.380Z,3
2023-03-27T16:40:20.421Z,3
2023-03-27T16:45:20.583Z,2
2023-03-27T16:50:20.501Z,6
2023-03-27T16:55:17.292Z,4
2023-03-27T17:00:17.376Z,6
2023-03-27T17:05:20.666Z,6
2023-03-27T17:10:20.486Z,9
2023-03-27T17:15:20.448Z,5
2023-03-27T17:20:20.543Z,7
2023-03-27T17:25:20.410Z,8
2023-03-27T17:30:30.591Z,5
2023-03-27T17:35:20.423Z,4
2023-03-27T17:40:20.724Z,7
2023-03-27T17:45:17.490Z,3
2023-03-27T17:50:17.271Z,6
2023-03-27T17:55:20.596Z,7
2023-03-27T18:00:20.524Z,7
2023-03-27T18:05:20.489Z,5
2023-03-27T18:10:20.541Z,6
2023-03-27T18:15:20.503Z,6
2023-03-27T18:20:20.565Z,7
2023-03-27T18:25:20.579Z,7
2023-03-27T18:30:20.701Z,5
2023-03-27T18:35:20.568Z,4
2023-03-27T18:40:17.474Z,4
2023-03-27T18:45:17.397Z,5
2023-03-27T18:50:20.553Z,5
2023-03-27T18:55:20.471Z,3
2023-03-27T19:00:20.588Z,1
2023-03-27T19:05:20.653Z,1
2023-03-27T19:10:18.622Z,1
2023-03-27T19:15:20.193Z,2
2023-03-27T19:20:15.403Z,2
2023-03-27T19:25:15.753Z,2
2023-03-27T19:30:18.674Z,2
2023-03-27T19:35:18.605Z,3
2023-03-27T19:40:18.832Z,2
2023-03-27T19:45:18.654Z,1
2023-03-27T19:50:18.616Z,1
2023-03-27T19:55:18.736Z,0
2023-03-27T20:00:18.695Z,1
2023-03-27T20:05:18.623Z,1
2023-03-27T20:10:15.578Z,1
2023-03-27T20:15:15.645Z,2
2023-03-27T20:20:18.937Z,2
2023-03-27T20:25:15.886Z,2
2023-03-27T20:30:18.768Z,2
2023-03-27T20:35:23.643Z,3
2023-03-27T20:40:18.859Z,4
2023-03-27T20:45:18.802Z,3
2023-03-27T20:50:18.673Z,2
2023-03-27T20:55:30.430Z,1
2023-03-27T21:00:18.736Z,3
2023-03-27T21:05:15.648Z,2
2023-03-27T21:10:15.601Z,3
2023-03-27T21:15:18.766Z,5
2023-03-27T21:20:18.845Z,6
2023-03-27T21:25:18.930Z,5
2023-03-27T21:30:16.547Z,8
2023-03-27T21:35:18.919Z,8
2023-03-27T21:40:18.797Z,7
2023-03-27T21:45:18.783Z,10
2023-03-27T21:50:18.782Z,5
2023-03-27T21:55:18.901Z,3
2023-03-27T22:00:15.839Z,2
2023-03-27T22:05:15.928Z,1
2023-03-27T22:10:18.896Z,1
2023-03-27T22:15:18.875Z,2
2023-03-27T22:20:19.017Z,2
2023-03-27T22:25:18.888Z,1
2023-03-27T22:30:18.925Z,0
2023-03-27T22:35:18.958Z,1
2023-03-27T22:40:18.908Z,2
2023-03-27T22:45:18.836Z,1
2023-03-27T22:50:15.808Z,3
2023-03-27T22:55:15.770Z,3
2023-03-27T23:00:18.948Z,2
2023-03-27T23:05:19.044Z,3
2023-03-27T23:10:18.964Z,2
2023-03-27T23:15:29.998Z,2
2023-03-27T23:20:18.967Z,2
2023-03-27T23:25:18.913Z,1
2023-03-27T23:30:18.944Z,0
2023-03-27T23:35:18.866Z,1
2023-03-27T23:40:19.234Z,1
2023-03-27T23:45:15.857Z,1
2023-03-27T23:50:15.882Z,1
2023-03-27T23:55:19.121Z,2
